»·PEaware :: N667SB KRNO-KBOI

N667SB :: KRNO-KBOI

FLIGHT INFORMATION

Flight Status: Arrived
Operator: Privately registered:
United States
More flights under this callsign
Pilot: Dean S. (16265)
Aircraft: CESSNA 421 GOLDEN EAGLE
(C421)
More flights by this aircraft type
Origin: KRNO Reno/Tahoe Intl
United States
Destination: KBOI Boise Air Terminal/Gowen
United States
More flights between these airports :: More routes between these airports
Route: SDO REO
File this flight plan on PilotEdge
Remarks:
Altitude:
(Current/Filed)
17,500ft
Speed:
(Current/Filed)
200kts
Departed: 05-Sep-18 07:07 PM
Arrived: 05-Sep-18 08:30 PM
Distance/Time
Traveled:
291nm/1:23
Distance/Time
To Go:
Arrived

Flight Plot

Page will automatically refresh every two minutes.

Flight plan parsing failed; only flown route is shown


Map Options




Map Legend


Flown Route
Filed Route
Departure Airport
Arrival Airport
Navaid (VOR, NDB)
Fix

Horizontal Profiles

Position Reports

Time Latitude Longitude Heading Altitude Ground
Speed
05-Sep-18 18:59 39.508519 -119.773591 179 4419ft 0kts
05-Sep-18 19:00 39.508519 -119.773591 179 4419ft 0kts
05-Sep-18 19:01 39.508519 -119.773591 179 4419ft 0kts
05-Sep-18 19:02 39.508519 -119.773591 179 4419ft 0kts
05-Sep-18 19:03 39.508519 -119.773591 179 4419ft 0kts
05-Sep-18 19:04 39.508519 -119.773591 179 4419ft 0kts
05-Sep-18 19:05 39.508518 -119.773591 179 4419ft 0kts
05-Sep-18 19:06 39.508451 -119.771492 358 4419ft 12kts
05-Sep-18 19:07 39.513755 -119.771125 67 4419ft 9kts
05-Sep-18 19:08 39.513769 -119.770352 87 4419ft 0kts
05-Sep-18 19:09 39.510558 -119.769239 180 4419ft 74kts
05-Sep-18 19:10 39.481151 -119.761461 101 5398ft 137kts
05-Sep-18 19:11 39.485256 -119.707992 77 6788ft 152kts
05-Sep-18 19:12 39.513794 -119.665874 0 7786ft 167kts
05-Sep-18 19:13 39.562032 -119.676059 349 9311ft 182kts
05-Sep-18 19:14 39.612428 -119.667291 28 10824ft 193kts
05-Sep-18 19:15 39.658092 -119.628259 34 12334ft 198kts
05-Sep-18 19:16 39.704259 -119.587410 34 13837ft 203kts
05-Sep-18 19:17 39.751590 -119.545546 34 15339ft 208kts
05-Sep-18 19:18 39.800138 -119.502562 34 16845ft 212kts
05-Sep-18 19:19 39.851423 -119.457040 34 17490ft 238kts
05-Sep-18 19:20 39.907872 -119.406832 34 17479ft 248kts
05-Sep-18 19:21 39.964805 -119.356095 34 17537ft 249kts
05-Sep-18 19:22 40.022055 -119.304974 34 17531ft 250kts
05-Sep-18 19:23 40.079537 -119.253540 34 17527ft 250kts
05-Sep-18 19:24 40.136798 -119.202197 34 17524ft 250kts
05-Sep-18 19:25 40.194046 -119.150756 34 17519ft 250kts
05-Sep-18 19:26 40.251452 -119.099067 34 17516ft 250kts
05-Sep-18 19:27 40.308642 -119.047465 34 17513ft 250kts
05-Sep-18 19:28 40.366007 -118.995599 34 17512ft 250kts
05-Sep-18 19:29 40.423153 -118.943819 34 17509ft 250kts
05-Sep-18 19:30 40.480266 -118.891959 34 17510ft 250kts
05-Sep-18 19:31 40.537540 -118.839844 34 17511ft 250kts
05-Sep-18 19:32 40.594618 -118.787797 34 17512ft 250kts
05-Sep-18 19:33 40.651653 -118.735677 34 17514ft 250kts
05-Sep-18 19:34 40.708865 -118.683283 34 17511ft 250kts
05-Sep-18 19:35 40.765884 -118.630955 34 17511ft 250kts
05-Sep-18 19:36 40.823045 -118.578381 34 17513ft 250kts
05-Sep-18 19:36 40.870492 -118.534660 34 17521ft 249kts
05-Sep-18 19:38 40.936923 -118.473311 34 17515ft 250kts
05-Sep-18 19:39 40.994035 -118.420447 34 17516ft 250kts
05-Sep-18 19:40 41.050919 -118.367674 34 17517ft 250kts
05-Sep-18 19:40 41.098314 -118.323620 34 17517ft 250kts
05-Sep-18 19:41 41.155353 -118.270498 34 17517ft 250kts
05-Sep-18 19:43 41.221658 -118.208611 34 17518ft 250kts
05-Sep-18 19:43 41.269001 -118.164318 35 17517ft 250kts
05-Sep-18 19:44 41.325977 -118.110907 35 17515ft 250kts
05-Sep-18 19:45 41.382753 -118.057565 35 17514ft 250kts
05-Sep-18 19:46 41.447271 -118.028917 5 17514ft 250kts
05-Sep-18 19:47 41.516414 -118.019579 5 17512ft 250kts
05-Sep-18 19:48 41.585559 -118.010028 5 17510ft 250kts
05-Sep-18 19:49 41.654941 -118.000395 5 17508ft 250kts
05-Sep-18 19:50 41.724079 -117.990771 5 17507ft 250kts
05-Sep-18 19:51 41.793456 -117.981092 5 17505ft 250kts
05-Sep-18 19:52 41.862609 -117.971423 5 17503ft 250kts
05-Sep-18 19:53 41.931751 -117.961734 5 17501ft 250kts
05-Sep-18 19:54 42.001133 -117.951991 5 17500ft 250kts
05-Sep-18 19:55 42.070296 -117.942256 5 17498ft 250kts
05-Sep-18 19:56 42.139420 -117.932506 5 17496ft 250kts
05-Sep-18 19:57 42.208808 -117.922697 5 17495ft 250kts
05-Sep-18 19:58 42.277961 -117.912900 5 17494ft 250kts
05-Sep-18 19:59 42.347354 -117.903046 5 17493ft 250kts
05-Sep-18 20:00 42.416745 -117.893177 5 17325ft 255kts
05-Sep-18 20:01 42.487853 -117.883063 5 16728ft 258kts
05-Sep-18 20:02 42.559364 -117.872844 5 16126ft 257kts
05-Sep-18 20:03 42.617617 -117.824528 50 15528ft 255kts
05-Sep-18 20:04 42.662496 -117.750052 50 14929ft 254kts
05-Sep-18 20:05 42.707335 -117.675871 50 14327ft 252kts
05-Sep-18 20:06 42.751688 -117.602398 50 13723ft 250kts
05-Sep-18 20:07 42.795180 -117.530186 50 13514ft 240kts
05-Sep-18 20:08 42.837138 -117.460356 50 13511ft 237kts
05-Sep-18 20:09 42.878857 -117.390760 50 13506ft 237kts
05-Sep-18 20:10 42.920054 -117.321894 50 13158ft 231kts
05-Sep-18 20:11 42.960424 -117.254243 50 12493ft 229kts
05-Sep-18 20:12 43.002088 -117.184256 50 10652ft 242kts
05-Sep-18 20:13 43.043229 -117.114969 50 9481ft 212kts
05-Sep-18 20:14 43.080193 -117.052633 50 9456ft 216kts
05-Sep-18 20:15 43.118430 -116.987970 50 9441ft 219kts
05-Sep-18 20:16 43.156685 -116.923110 50 9435ft 219kts
05-Sep-18 20:17 43.194898 -116.858202 50 9431ft 219kts
05-Sep-18 20:18 43.233192 -116.792998 50 9428ft 219kts
05-Sep-18 20:19 43.265458 -116.723701 69 9382ft 210kts
05-Sep-18 20:20 43.285901 -116.647389 69 8356ft 216kts
05-Sep-18 20:21 43.330915 -116.598944 18 6979ft 211kts
05-Sep-18 20:22 43.383455 -116.572690 20 6422ft 187kts
05-Sep-18 20:23 43.430085 -116.548651 20 6418ft 173kts
05-Sep-18 20:24 43.474925 -116.525433 20 6419ft 171kts
05-Sep-18 20:25 43.513635 -116.492020 61 6428ft 170kts
05-Sep-18 20:26 43.539173 -116.436712 56 6422ft 171kts
05-Sep-18 20:27 43.562639 -116.387463 53 5901ft 146kts
05-Sep-18 20:28 43.584620 -116.347021 68 5061ft 128kts
05-Sep-18 20:30 43.588647 -116.299263 105 3646ft 110kts
05-Sep-18 20:31 43.577241 -116.263770 115 3120ft 102kts
05-Sep-18 20:32 43.566881 -116.233358 63 2838ft 21kts
05-Sep-18 20:33 43.566219 -116.234295 265 2838ft 0kts
05-Sep-18 20:34 43.564056 -116.232057 194 2838ft 0kts
05-Sep-18 20:35 43.564056 -116.232057 194 2838ft 0kts
05-Sep-18 20:36 43.564056 -116.232057 194 2838ft 0kts
05-Sep-18 20:37 43.564056 -116.232057 194 2838ft 0kts
05-Sep-18 20:38 43.564056 -116.232057 194 2838ft 0kts
05-Sep-18 20:39 43.564056 -116.232057 194 2838ft 0kts
05-Sep-18 20:40 43.564056 -116.232057 194 2838ft 0kts
05-Sep-18 20:41 43.564056 -116.232057 194 2838ft 0kts
05-Sep-18 20:42 43.564056 -116.232057 194 2838ft 0kts
05-Sep-18 20:43 43.564056 -116.232057 194 2838ft 0kts
05-Sep-18 20:44 43.564056 -116.232057 194 2838ft 0kts
05-Sep-18 20:45 43.564056 -116.232057 194 2838ft 0kts
05-Sep-18 20:46 43.564056 -116.232057 194 2838ft 0kts
05-Sep-18 20:47 43.564056 -116.232057 194 2838ft 0kts

Navigation Log

Ident Type
Flight plan parsing failed, navigation log unavailable